This is the latest recevied weather packets stored in our database for station/object PU2ONU-13. If no packets are shown the sender has not sent any weather packets the latest 10 day(s).
| Time | Temp. | Humidity | Pressure | Rain* | Wind** | Luminosity | Snow |
|---|---|---|---|---|---|---|---|
| 1788474013 | 30° C | 36% | 1012 hPa | - | - | - | - |
| 1788470413 | 30.56° C | 34% | 1012 hPa | - | - | - | - |
| 1788468014 | 28.89° C | 33% | 1013 hPa | - | - | - | - |
| 1788466814 | 29.44° C | 32% | 1012 hPa | - | - | - | - |
| 1788445213 | 24.44° C | 46% | 1016 hPa | - | - | - | - |
| 1788442813 | 23.89° C | 46% | 1017 hPa | - | - | - | - |
| 1788441613 | 23.33° C | 48% | 1017 hPa | - | - | - | - |
| 1788439213 | 23.89° C | 45% | 1018 hPa | - | - | - | - |
| 1788435614 | 24.44° C | 40% | 1018 hPa | - | - | - | - |
| 1788434413 | 23.33° C | 43% | 1018 hPa | - | - | - | - |
| 1788432013 | 22.22° C | 44% | 1019 hPa | - | - | - | - |
| 1788430812 | 21.67° C | 45% | 1018 hPa | - | - | - | - |
| 1788428413 | 21.11° C | 44% | 1019 hPa | - | - | - | - |
| 1788427214 | 21.11° C | 44% | 1018 hPa | - | - | - | - |
| 1788424814 | 21.67° C | 43% | 1018 hPa | - | - | - | - |
| 1788423612 | 21.11° C | 44% | 1017 hPa | - | - | - | - |
| 1788421213 | 21.67° C | 45% | 1018 hPa | - | - | - | - |
| 1788420013 | 21.67° C | 42% | 1017 hPa | - | - | - | - |
| 1788417612 | 21.67° C | 44% | 1018 hPa | - | - | - | - |
| 1788416415 | 22.78° C | 43% | 1018 hPa | - | - | - | - |
| 1788414012 | 22.22° C | 43% | 1018 hPa | - | - | - | - |
| 1788412814 | 22.78° C | 44% | 1018 hPa | - | - | - | - |
| 1788410414 | 23.33° C | 42% | 1018 hPa | - | - | - | - |
| 1788409214 | 23.33° C | 43% | 1019 hPa | - | - | - | - |
| 1788406814 | 23.33° C | 42% | 1019 hPa | - | - | - | - |
* Rain since midnight (hover to see other rain measurements)
** Current wind speed in m/s (hover to see current wind gust speed)